Time;durP1;ratioP1;P1;durP2;ratioP2;P2;SDS_P1;SDS_P2;PMS_P1;PMS_P2;Temp;Humidity;BMP_temperature;BMP_pressure;BME280_temperature;BME280_humidity;BME280_pressure;Samples;Min_cycle;Max_cycle;Signal;HPM_P1;HPM_P2
2022/01/24 00:01:53;;;;;;;5.50;4.20;;;;;;;22.80;28.21;102012.48;102713;1329;61210;-86
2022/01/24 00:04:39;;;;;;;5.60;4.40;;;;;;;22.80;28.13;102013.14;102719;1329;73905;-82
2022/01/24 00:07:32;;;;;;;6.40;4.60;;;;;;;22.80;28.15;102015.47;102671;1329;75955;-81
2022/01/24 00:10:10;;;;;;;5.40;4.20;;;;;;;22.80;28.26;102021.94;102684;1328;61315;-83
2022/01/24 00:13:14;;;;;;;6.10;4.20;;;;;;;22.80;28.18;102021.25;102557;1329;62535;-83
2022/01/24 00:28:01;;;;;;;;;;;;;;;;;;;;;
2022/01/24 00:30:51;;;;;;;6.60;4.60;;;;;;;22.80;28.20;102037.77;102509;1330;74896;-84
2022/01/24 00:33:29;;;;;;;;;;;;;;;22.80;28.16;102037.40;102513;1331;61347;-83
2022/01/24 00:36:15;;;;;;;6.30;4.40;;;;;;;22.77;28.20;102041.86;102540;1330;61381;-86
2022/01/24 00:38:54;;;;;;;6.20;4.60;;;;;;;22.79;28.06;102043.77;102625;1325;73867;-88
2022/01/24 00:41:32;;;;;;;6.00;4.30;;;;;;;22.79;28.15;102046.09;102919;1325;74930;-87
2022/01/24 00:47:40;;;;;;;6.90;4.50;;;;;;;22.78;28.21;102045.61;103059;1322;61555;-86
2022/01/24 00:56:27;;;;;;;5.70;4.40;;;;;;;22.78;28.14;102048.63;102784;1325;61208;-79
2022/01/24 00:59:09;;;;;;;5.60;4.40;;;;;;;22.78;28.15;102044.69;103086;1319;61524;-85
2022/01/24 01:02:06;;;;;;;5.60;4.40;;;;;;;22.78;28.16;102038.23;103427;1319;74390;-82
2022/01/24 01:04:54;;;;;;;6.50;4.60;;;;;;;22.79;28.06;102039.81;103456;1319;75740;-81
2022/01/24 01:07:56;;;;;;;5.90;4.60;;;;;;;22.79;28.17;102037.48;103488;1319;61542;-83
2022/01/24 01:19:42;;;;;;;5.40;4.20;;;;;;;22.78;28.13;102040.71;103497;1319;61474;-85
2022/01/24 01:22:31;;;;;;;6.20;4.30;;;;;;;22.79;28.14;102043.57;103439;1319;61348;-83
2022/01/24 01:25:10;;;;;;;;;;;;;;;;;;;;;
2022/01/24 01:28:19;;;;;;;6.80;4.30;;;;;;;22.79;28.14;102050.05;103454;1319;73435;-88
2022/01/24 01:31:02;;;;;;;6.40;4.20;;;;;;;22.79;28.20;102040.35;103837;1315;61333;-84
2022/01/24 01:34:07;;;;;;;6.30;4.40;;;;;;;22.79;28.23;102041.08;103787;1316;61577;-83
2022/01/24 01:37:27;;;;;;;5.90;4.40;;;;;;;22.78;28.06;102043.24;103838;1316;73985;-85
2022/01/24 01:55:36;;;;;;;5.90;4.50;;;;;;;22.78;28.06;102062.29;104387;1311;61228;-84
2022/01/24 01:58:16;;;;;;;6.80;4.40;;;;;;;22.78;28.04;102062.81;104394;1310;61338;-85
2022/01/24 02:00:52;;;;;;;;;;;;;;;;;;;;;
2022/01/24 02:04:04;;;;;;;;;;;;;;;;;;;;;
2022/01/24 02:06:48;;;;;;;6.30;4.10;;;;;;;22.76;27.92;102067.21;104375;1311;61542;-81
2022/01/24 02:09:40;;;;;;;4.90;4.20;;;;;;;22.77;27.97;102068.08;104401;1311;61334;-84
2022/01/24 02:12:17;;;;;;;6.40;4.10;;;;;;;22.77;27.95;102068.45;104331;1311;72941;-86
2022/01/24 02:15:10;;;;;;;5.70;4.40;;;;;;;22.77;28.05;102074.55;104341;1311;75889;-84
2022/01/24 02:24:41;;;;;;;6.20;4.30;;;;;;;22.76;28.08;102082.83;104128;1314;73877;-86
2022/01/24 02:27:19;;;;;;;7.00;4.30;;;;;;;22.77;27.99;102089.96;104181;1314;75994;-79
2022/01/24 02:30:23;;;;;;;6.80;4.30;;;;;;;22.77;28.00;102091.23;104144;1314;61433;-84
2022/01/24 02:32:56;;;;;;;7.00;4.50;;;;;;;22.77;27.94;102096.08;104252;1314;61200;-82
2022/01/24 02:35:39;;;;;;;8.80;4.90;;;;;;;22.77;27.90;102102.17;104255;1313;72991;-83
2022/01/24 02:48:39;;;;;;;5.40;4.10;;;;;;;22.76;28.06;102122.16;103731;1317;74208;-82
2022/01/24 02:51:39;;;;;;;;;;;;;;;;;;;;;
2022/01/24 02:54:32;;;;;;;5.90;4.30;;;;;;;22.76;27.91;102128.78;103713;1316;61373;-82
2022/01/24 02:57:04;;;;;;;5.60;4.10;;;;;;;22.76;27.99;102127.16;103871;1316;61975;-81
2022/01/24 02:59:43;;;;;;;6.20;4.50;;;;;;;22.78;27.95;102137.16;104149;1313;72901;-82
2022/01/24 03:02:52;;;;;;;7.50;4.40;;;;;;;22.77;27.95;102134.83;104208;1313;73960;-84
2022/01/24 03:05:38;;;;;;;;;;;;;;;;;;;;;
2022/01/24 03:08:43;;;;;;;;;;;;;;;;;;;;;
2022/01/24 03:11:15;;;;;;;6.10;4.30;;;;;;;22.77;27.81;102154.75;104289;1312;73917;-81
2022/01/24 03:14:08;;;;;;;5.80;4.30;;;;;;;22.78;27.94;102156.34;104289;1312;74655;-82
2022/01/24 03:16:54;;;;;;;6.90;4.20;;;;;;;22.78;27.92;102163.14;104531;1305;61404;-87
2022/01/24 03:19:27;;;;;;;7.10;4.50;;;;;;;22.78;27.99;102166.57;104503;1308;61210;-82
2022/01/24 03:22:28;;;;;;;6.70;4.20;;;;;;;22.78;27.99;102170.71;104744;1304;70418;-82
2022/01/24 03:25:21;;;;;;;5.80;4.30;;;;;;;22.78;27.87;102168.02;104637;1305;76248;-87
2022/01/24 03:28:07;;;;;;;7.00;4.60;;;;;;;22.78;27.76;102166.94;104642;1307;61145;-85
2022/01/24 03:30:52;;;;;;;6.30;4.10;;;;;;;22.78;27.89;102165.48;104805;1305;61359;-86
2022/01/24 03:33:31;;;;;;;5.80;4.40;;;;;;;22.78;27.78;102164.77;104607;1308;72246;-78
2022/01/24 03:36:20;;;;;;;6.30;4.20;;;;;;;22.77;28.03;102164.24;104691;1305;75884;-85
2022/01/24 03:38:49;;;;;;;6.20;4.60;;;;;;;22.78;27.90;102165.34;104491;1308;61419;-82
2022/01/24 03:41:46;;;;;;;;;;;;;;;;;;;;;
2022/01/24 03:44:32;;;;;;;5.60;4.30;;;;;;;22.77;27.90;102169.64;104566;1305;72607;-82
2022/01/24 03:47:42;;;;;;;7.60;4.60;;;;;;;22.77;27.98;102166.42;104791;1304;74870;-86
2022/01/24 03:50:25;;;;;;;6.00;4.30;;;;;;;22.77;27.75;102169.16;104652;1305;61246;-83
2022/01/24 03:53:10;;;;;;;;;;;;;;;;;;;;;
2022/01/24 03:55:57;;;;;;;5.90;4.40;;;;;;;22.77;27.73;102180.98;104626;1305;73816;-83
2022/01/24 03:58:43;;;;;;;6.50;4.40;;;;;;;22.77;27.73;102184.19;104630;1305;75685;-86
2022/01/24 04:01:43;;;;;;;5.70;4.50;;;;;;;22.78;27.79;102193.69;104654;1305;61672;-85
2022/01/24 04:04:20;;;;;;;6.70;3.90;;;;;;;22.77;27.96;102193.19;104705;1305;61615;-82
2022/01/24 04:07:15;;;;;;;7.00;4.10;;;;;;;22.77;27.82;102193.36;104654;1305;73974;-80
2022/01/24 04:10:06;;;;;;;6.30;4.30;;;;;;;22.77;27.77;102198.19;104676;1305;74725;-82
2022/01/24 04:12:55;;;;;;;5.70;4.20;;;;;;;22.77;27.69;102201.10;104642;1305;61425;-82
2022/01/24 04:17:24;;;;;;;5.60;4.30;;;;;;;22.77;27.73;102201.80;104659;1305;61086;-83
2022/01/24 04:21:48;;;;;;;;;;;;;;;;;;;;;
2022/01/24 04:24:23;;;;;;;6.00;4.40;;;;;;;22.77;27.81;102208.45;104815;1304;61764;-85
2022/01/24 04:26:59;;;;;;;5.40;4.00;;;;;;;22.77;27.66;102211.85;104561;1305;61172;-82
2022/01/24 04:29:55;;;;;;;6.40;4.30;;;;;;;22.76;27.79;102214.73;104309;1311;71578;-82
2022/01/24 04:32:43;;;;;;;6.60;4.50;;;;;;;22.77;27.50;102213.27;104409;1311;75021;-87
2022/01/24 04:35:38;;;;;;;5.90;4.00;;;;;;;22.76;27.69;102217.96;104315;1311;61329;-86
2022/01/24 04:38:15;;;;;;;5.60;4.50;;;;;;;22.76;27.79;102223.19;104082;1317;61393;-81
2022/01/24 04:41:25;;;;;;;5.20;4.00;;;;;;;22.76;27.67;102227.33;104074;1316;72858;-89
2022/01/24 04:44:41;;;;;;;6.10;4.10;;;;;;;22.76;27.67;102230.02;104099;1316;75140;-85
2022/01/24 04:54:03;;;;;;;5.80;4.00;;;;;;;22.75;27.76;102246.95;103247;1322;71560;-84
2022/01/24 04:56:50;;;;;;;5.50;4.50;;;;;;;22.75;27.72;102249.98;103018;1323;76112;-79
2022/01/24 04:59:25;;;;;;;6.00;4.40;;;;;;;22.76;27.65;102257.46;103081;1323;61527;-80
2022/01/24 05:02:17;;;;;;;5.80;4.50;;;;;;;22.76;27.84;102258.73;103089;1322;61626;-83
2022/01/24 05:04:56;;;;;;;5.80;4.10;;;;;;;22.76;27.73;102262.48;103092;1322;74166;-82
2022/01/24 05:07:59;;;;;;;5.70;4.10;;;;;;;22.76;27.82;102269.33;103150;1322;75820;-81
2022/01/24 05:11:03;;;;;;;8.20;4.70;;;;;;;22.76;27.77;102270.23;103080;1322;61453;-83
2022/01/24 05:23:45;;;;;;;6.20;4.20;;;;;;;22.75;27.63;102279.94;104308;1311;61360;-87
2022/01/24 05:26:31;;;;;;;6.10;4.40;;;;;;;22.76;27.74;102280.99;104276;1311;61415;-83
2022/01/24 05:29:16;;;;;;;7.40;4.30;;;;;;;22.75;27.54;102283.17;104198;1313;72710;-84
2022/01/24 05:32:13;;;;;;;;;;;;;;;;;;;;;
2022/01/24 05:34:52;;;;;;;5.60;4.30;;;;;;;22.75;27.67;102288.77;104411;1305;61157;-86
2022/01/24 05:37:39;;;;;;;6.20;4.40;;;;;;;22.76;27.61;102290.86;104802;1305;61301;-87
2022/01/24 05:40:24;;;;;;;6.20;4.30;;;;;;;22.76;27.72;102300.38;104776;1304;72979;-83
2022/01/24 05:43:16;;;;;;;5.30;4.00;;;;;;;22.75;27.78;102303.98;104716;1305;74992;-79
2022/01/24 05:45:58;;;;;;;6.40;4.40;;;;;;;22.75;27.53;102305.79;104788;1305;62464;-81
2022/01/24 05:48:33;;;;;;;5.50;4.10;;;;;;;22.75;27.63;102307.94;104636;1305;61153;-84
2022/01/24 05:51:23;;;;;;;;;;;;;;;;;;;;;
2022/01/24 05:54:10;;;;;;;5.40;3.90;;;;;;;22.75;27.55;102315.15;104751;1305;74264;-83
2022/01/24 05:56:45;;;;;;;5.40;4.30;;;;;;;22.75;27.52;102325.17;104819;1304;61059;-85
2022/01/24 05:59:38;;;;;;;5.90;4.30;;;;;;;22.75;27.68;102326.98;104835;1304;61184;-82
2022/01/24 06:02:23;;;;;;;5.50;4.20;;;;;;;22.75;27.62;102328.24;104655;1303;73939;-82
2022/01/24 06:05:02;;;;;;;7.80;4.10;;;;;;;22.75;27.73;102333.44;104762;1305;74720;-87
2022/01/24 06:07:49;;;;;;;5.70;4.30;;;;;;;22.76;27.59;102337.17;104558;1304;61201;-82
2022/01/24 06:10:38;;;;;;;6.60;4.30;;;;;;;22.76;27.75;102340.77;104669;1305;61273;-86
2022/01/24 06:13:20;;;;;;;5.90;4.50;;;;;;;22.76;27.70;102343.09;104627;1305;72737;-82
2022/01/24 06:16:09;;;;;;;6.00;4.30;;;;;;;22.77;27.76;102351.14;104780;1305;73655;-85
2022/01/24 06:18:57;;;;;;;6.40;4.30;;;;;;;22.76;27.68;102357.79;104656;1305;61255;-84
2022/01/24 06:21:45;;;;;;;6.40;4.30;;;;;;;22.76;27.52;102357.27;104795;1305;61305;-83
2022/01/24 06:24:33;;;;;;;5.60;4.30;;;;;;;22.76;27.73;102363.90;104647;1304;73827;-85
2022/01/24 06:27:11;;;;;;;5.80;4.80;;;;;;;22.77;27.53;102366.93;104752;1305;74752;-79
2022/01/24 06:29:55;;;;;;;7.50;4.30;;;;;;;22.77;27.67;102368.19;104645;1305;61236;-81
2022/01/24 06:32:33;;;;;;;6.20;4.10;;;;;;;22.77;27.62;102364.93;104545;1305;61488;-84
2022/01/24 06:35:38;;;;;;;7.00;4.50;;;;;;;22.77;27.38;102371.20;104533;1305;74304;-84
2022/01/24 06:38:24;;;;;;;5.80;4.20;;;;;;;22.77;27.62;102374.60;104816;1303;74746;-82
2022/01/24 06:41:10;;;;;;;5.50;4.40;;;;;;;22.78;27.60;102376.39;104545;1307;61151;-82
2022/01/24 06:43:48;;;;;;;6.90;3.80;;;;;;;22.78;27.78;102376.02;104518;1305;61276;-84
2022/01/24 06:46:36;;;;;;;6.10;4.10;;;;;;;22.77;27.46;102376.05;104530;1305;72798;-81
2022/01/24 06:49:29;;;;;;;5.70;4.30;;;;;;;22.77;27.63;102373.54;104780;1305;74576;-86
2022/01/24 06:51:54;;;;;;;7.10;4.40;;;;;;;22.78;27.72;102373.70;104640;1305;61182;-81
2022/01/24 06:54:45;;;;;;;5.40;4.30;;;;;;;22.78;27.56;102372.98;104582;1304;61209;-83
2022/01/24 06:57:39;;;;;;;7.10;4.90;;;;;;;22.78;27.43;102367.57;104595;1305;73726;-80
2022/01/24 07:00:29;;;;;;;6.20;4.20;;;;;;;22.78;27.47;102364.15;104634;1304;76002;-82
2022/01/24 07:03:42;;;;;;;5.60;4.00;;;;;;;22.78;27.46;102366.13;104767;1304;61632;-83
2022/01/24 07:06:21;;;;;;;6.00;4.30;;;;;;;22.78;27.55;102363.08;103700;1319;61357;-82
2022/01/24 07:08:49;;;;;;;;;;;;;;;22.79;27.70;102363.77;103373;1319;72862;-82
2022/01/24 07:11:43;;;;;;;;;;;;;;;;;;;;;
2022/01/24 07:14:45;;;;;;;5.80;4.50;;;;;;;22.77;27.71;102366.54;103316;1319;61235;-81
2022/01/24 07:20:04;;;;;;;6.40;4.50;;;;;;;22.78;27.63;102371.70;103387;1318;72943;-81
2022/01/24 07:22:59;;;;;;;6.00;4.20;;;;;;;22.78;27.59;102371.52;103508;1318;74847;-83
2022/01/24 07:26:09;;;;;;;5.80;4.20;;;;;;;22.78;27.67;102376.38;103575;1318;61237;-84
2022/01/24 07:28:46;;;;;;;;;;;;;;;22.78;27.76;102375.30;102538;1330;61662;-84
2022/01/24 07:31:33;;;;;;;;;;;;;;;;;;;;;
2022/01/24 07:34:10;;;;;;;6.20;4.80;;;;;;;22.77;27.65;102383.61;102507;1331;74935;-83
2022/01/24 07:36:57;;;;;;;5.60;4.50;;;;;;;22.77;27.72;102386.64;102679;1324;61910;-84
2022/01/24 07:39:40;;;;;;;7.00;4.00;;;;;;;22.77;27.61;102380.02;102955;1323;61342;-80
2022/01/24 07:42:28;;;;;;;5.30;4.20;;;;;;;22.78;27.68;102385.54;102799;1325;73811;-80
2022/01/24 07:45:23;;;;;;;5.20;4.10;;;;;;;22.78;27.77;102386.80;103011;1322;75534;-84
2022/01/24 07:48:01;;;;;;;5.30;4.10;;;;;;;22.78;27.72;102391.11;103247;1321;61396;-83
2022/01/24 07:51:20;;;;;;;5.20;4.10;;;;;;;22.78;27.70;102393.98;103254;1321;61843;-82
2022/01/24 07:54:06;;;;;;;5.90;4.40;;;;;;;22.78;27.64;102396.66;102959;1325;72768;-84
2022/01/24 07:56:54;;;;;;;5.60;4.30;;;;;;;22.78;27.70;102391.65;102683;1329;74951;-85
2022/01/24 07:59:36;;;;;;;6.50;4.20;;;;;;;22.78;27.50;102396.48;102676;1329;61197;-87
2022/01/24 08:02:14;;;;;;;6.10;4.40;;;;;;;22.78;27.54;102396.84;102703;1329;61627;-85
2022/01/24 08:05:00;;;;;;;5.60;4.30;;;;;;;22.79;27.57;102391.97;102739;1323;71894;-85
2022/01/24 08:07:38;;;;;;;6.20;4.20;;;;;;;22.79;27.68;102400.03;104135;1316;76368;-83
2022/01/24 08:10:36;;;;;;;5.50;4.40;;;;;;;22.78;27.60;102401.31;104155;1316;61609;-81
2022/01/24 08:13:19;;;;;;;7.00;4.40;;;;;;;22.78;27.53;102405.27;104155;1316;61311;-83
2022/01/24 08:16:14;;;;;;;6.50;4.60;;;;;;;22.78;27.51;102402.75;104135;1314;73993;-85
2022/01/24 08:18:40;;;;;;;6.10;4.30;;;;;;;22.78;27.56;102410.84;104160;1316;73726;-85
2022/01/24 08:21:54;;;;;;;;;;;;;;;;;;;;;
2022/01/24 08:24:40;;;;;;;5.80;4.20;;;;;;;22.78;27.50;102413.17;104200;1316;61424;-83
2022/01/24 08:27:39;;;;;;;;;;;;;;;;;;;;;
2022/01/24 08:30:22;;;;;;;5.10;3.80;;;;;;;22.78;27.60;102414.23;103087;1323;76056;-82
2022/01/24 08:33:14;;;;;;;6.20;3.90;;;;;;;22.79;27.53;102422.65;103143;1322;61285;-79
2022/01/24 08:35:53;;;;;;;6.30;4.10;;;;;;;22.79;27.48;102411.89;103682;1319;61748;-84
2022/01/24 08:38:35;;;;;;;5.90;4.30;;;;;;;22.78;27.54;102416.02;103564;1319;72646;-79
2022/01/24 08:41:10;;;;;;;6.00;3.80;;;;;;;22.78;27.61;102428.95;103282;1321;75075;-83
2022/01/24 08:46:57;;;;;;;5.60;3.90;;;;;;;22.78;27.42;102429.17;103029;1319;61818;-86
2022/01/24 08:49:43;;;;;;;5.90;4.20;;;;;;;22.78;27.43;102432.94;103220;1319;73437;-83
2022/01/24 08:52:21;;;;;;;6.70;4.10;;;;;;;22.77;27.52;102431.70;103148;1322;75819;-81
2022/01/24 08:55:05;;;;;;;5.90;4.30;;;;;;;22.78;27.46;102426.28;103614;1319;61342;-83
2022/01/24 08:57:40;;;;;;;6.90;4.20;;;;;;;22.78;27.55;102425.02;103654;1317;61298;-82
2022/01/24 09:00:26;;;;;;;6.50;4.10;;;;;;;22.78;27.48;102427.17;103316;1319;74283;-79
2022/01/24 09:03:06;;;;;;;;;;;;;;;22.78;27.43;102428.25;103282;1319;75703;-81
2022/01/24 09:05:49;;;;;;;6.40;3.90;;;;;;;22.76;27.40;102437.51;104200;1311;61908;-87
2022/01/24 09:08:51;;;;;;;;;;;;;;;;;;;;;
2022/01/24 09:11:24;;;;;;;5.20;3.80;;;;;;;22.77;27.50;102437.63;104296;1311;72725;-83
2022/01/24 09:14:13;;;;;;;5.20;3.90;;;;;;;22.78;27.46;102436.51;104337;1311;75901;-84
2022/01/24 09:16:49;;;;;;;6.80;4.10;;;;;;;22.78;27.44;102437.02;104351;1311;61287;-87
2022/01/24 09:19:46;;;;;;;6.40;4.10;;;;;;;22.78;27.30;102439.02;104368;1311;61314;-84
2022/01/24 09:22:35;;;;;;;8.80;3.60;;;;;;;22.78;27.46;102439.38;104312;1311;73811;-81
2022/01/24 09:25:33;;;;;;;6.70;3.90;;;;;;;22.79;27.49;102440.06;104274;1312;74912;-85
2022/01/24 09:28:09;;;;;;;7.50;4.20;;;;;;;22.79;27.50;102436.44;104265;1313;61306;-80
2022/01/24 09:30:59;;;;;;;5.50;3.80;;;;;;;22.80;27.40;102443.07;104286;1313;61554;-82
2022/01/24 09:33:46;;;;;;;5.20;3.80;;;;;;;22.80;27.34;102440.73;104287;1310;72701;-85
2022/01/24 09:36:24;;;;;;;5.60;4.00;;;;;;;22.80;27.41;102440.55;104312;1311;76133;-81
2022/01/24 09:39:21;;;;;;;5.40;3.70;;;;;;;22.80;27.31;102442.88;104324;1311;61394;-83
2022/01/24 09:42:06;;;;;;;5.10;4.00;;;;;;;22.80;27.49;102440.73;104271;1311;61319;-84
2022/01/24 09:44:50;;;;;;;5.40;3.80;;;;;;;22.80;27.17;102431.00;104296;1311;72778;-87
2022/01/24 09:47:35;;;;;;;5.10;3.70;;;;;;;22.80;27.38;102436.21;104326;1311;74634;-82
2022/01/24 09:50:21;;;;;;;5.50;3.70;;;;;;;22.80;27.43;102432.98;104337;1310;61376;-82
2022/01/24 09:52:50;;;;;;;4.60;3.60;;;;;;;22.80;27.24;102425.63;104290;1311;61314;-80
2022/01/24 09:55:43;;;;;;;4.90;3.70;;;;;;;22.80;27.21;102425.29;104287;1313;73047;-81
2022/01/24 09:58:35;;;;;;;7.80;3.70;;;;;;;22.79;27.29;102424.22;103868;1317;75687;-81
2022/01/24 10:01:23;;;;;;;5.30;3.90;;;;;;;22.80;27.20;102436.05;103934;1317;61624;-84
2022/01/24 10:04:31;;;;;;;5.30;3.70;;;;;;;22.80;27.42;102437.29;103691;1317;62421;-84
2022/01/24 10:07:23;;;;;;;6.20;3.60;;;;;;;22.80;27.32;102435.48;103687;1317;73199;-82
2022/01/24 10:10:15;;;;;;;5.00;3.40;;;;;;;22.80;27.35;102432.96;103887;1317;73543;-83
2022/01/24 10:16:35;;;;;;;5.70;3.90;;;;;;;22.81;27.36;102434.58;103879;1317;61324;-78
2022/01/24 10:19:27;;;;;;;4.80;3.50;;;;;;;22.81;27.24;102439.21;104016;1316;61192;-83
2022/01/24 10:22:24;;;;;;;5.80;3.80;;;;;;;22.81;27.29;102439.56;103874;1316;73131;-86
2022/01/24 10:25:07;;;;;;;5.70;3.40;;;;;;;22.82;27.30;102444.02;103890;1317;74904;-84
2022/01/24 10:27:50;;;;;;;5.90;3.70;;;;;;;22.82;27.37;102443.63;103840;1317;61172;-82
2022/01/24 10:30:35;;;;;;;4.90;3.50;;;;;;;22.83;27.40;102444.52;103871;1316;61204;-81
2022/01/24 10:33:12;;;;;;;6.20;3.50;;;;;;;22.83;27.41;102450.42;103848;1317;72632;-80
2022/01/24 10:35:57;;;;;;;5.30;3.70;;;;;;;22.83;27.31;102450.23;104124;1313;76022;-81
2022/01/24 10:39:05;;;;;;;6.10;3.60;;;;;;;22.83;27.28;102453.31;104180;1313;61197;-80
2022/01/24 10:42:09;;;;;;;;;;;;;;;;;;;;;
2022/01/24 10:45:12;;;;;;;5.60;3.80;;;;;;;22.81;27.48;102447.27;104301;1313;73987;-86
2022/01/24 10:48:14;;;;;;;5.40;3.70;;;;;;;22.82;27.44;102448.67;104273;1313;74919;-83
2022/01/24 10:50:44;;;;;;;5.30;3.60;;;;;;;22.82;27.26;102447.39;104772;1305;61296;-82
2022/01/24 10:53:55;;;;;;;6.40;3.90;;;;;;;22.82;27.23;102449.02;104659;1305;61146;-86
2022/01/24 10:56:55;;;;;;;5.60;4.00;;;;;;;22.82;27.27;102445.08;104046;1313;72678;-78
2022/01/24 10:59:41;;;;;;;5.50;3.70;;;;;;;22.82;27.33;102442.38;104066;1313;74870;-80
2022/01/24 11:02:09;;;;;;;5.30;3.90;;;;;;;22.82;27.41;102441.14;103710;1316;61273;-81
2022/01/24 11:04:51;;;;;;;5.70;3.80;;;;;;;22.82;27.34;102447.07;104063;1314;61972;-86
2022/01/24 11:07:47;;;;;;;6.10;3.50;;;;;;;22.82;27.22;102442.38;104135;1313;73130;-84
2022/01/24 11:10:21;;;;;;;5.10;3.70;;;;;;;22.83;27.38;102441.83;104063;1313;75252;-80
2022/01/24 11:12:56;;;;;;;4.60;3.40;;;;;;;22.82;27.31;102440.91;104045;1313;61507;-81
2022/01/24 11:15:48;;;;;;;5.20;3.70;;;;;;;22.84;27.40;102441.95;104156;1313;61433;-85
2022/01/24 11:18:16;;;;;;;6.90;3.70;;;;;;;22.83;27.44;102445.02;104185;1313;72828;-80
2022/01/24 11:21:01;;;;;;;6.30;3.40;;;;;;;22.83;27.35;102445.20;104066;1313;74524;-82
2022/01/24 11:23:40;;;;;;;5.70;4.00;;;;;;;22.84;27.38;102457.90;104192;1313;61380;-83
2022/01/24 11:26:28;;;;;;;;;;;;;;;;;;;;;
2022/01/24 11:29:01;;;;;;;5.60;3.90;;;;;;;22.85;27.40;102457.87;104267;1313;72908;-83
2022/01/24 11:32:15;;;;;;;4.80;3.50;;;;;;;22.84;27.26;102459.69;104216;1312;73583;-80
2022/01/24 11:35:10;;;;;;;5.10;3.70;;;;;;;22.84;27.18;102458.80;104478;1306;61333;-84
2022/01/24 11:37:56;;;;;;;5.10;3.50;;;;;;;22.83;27.21;102449.68;104829;1305;61112;-83
2022/01/24 11:40:46;;;;;;;4.50;3.20;;;;;;;22.83;27.26;102451.13;104823;1305;72899;-82
2022/01/24 11:43:46;;;;;;;6.60;3.80;;;;;;;22.83;27.18;102450.97;104805;1305;75874;-82
2022/01/24 11:46:55;;;;;;;4.80;3.70;;;;;;;22.83;27.30;102453.98;104784;1305;61165;-82
2022/01/24 11:49:36;;;;;;;6.20;3.80;;;;;;;22.83;27.19;102447.04;104366;1311;61280;-85
2022/01/24 11:52:18;;;;;;;5.50;3.90;;;;;;;22.83;27.12;102440.36;104402;1311;73275;-82
2022/01/24 11:55:36;;;;;;;5.50;3.40;;;;;;;22.82;27.15;102439.88;104387;1311;73487;-85
2022/01/24 11:58:47;;;;;;;4.70;3.50;;;;;;;22.82;27.37;102434.31;104319;1311;61211;-89
2022/01/24 12:01:33;;;;;;;5.00;3.50;;;;;;;22.82;27.29;102433.05;103982;1316;61338;-83
2022/01/24 12:04:16;;;;;;;6.70;3.70;;;;;;;22.82;27.34;102425.31;104054;1316;73891;-84
2022/01/24 12:07:29;;;;;;;4.70;3.50;;;;;;;22.82;27.34;102421.90;104014;1317;74744;-84
2022/01/24 12:10:44;;;;;;;5.20;3.40;;;;;;;22.83;27.40;102414.53;103141;1323;61191;-83
2022/01/24 12:13:31;;;;;;;5.20;3.70;;;;;;;22.83;27.44;102405.38;102672;1329;61454;-81
2022/01/24 12:16:17;;;;;;;5.10;3.40;;;;;;;22.84;27.29;102409.45;102549;1327;72756;-86
2022/01/24 12:18:49;;;;;;;5.40;3.50;;;;;;;22.84;27.31;102403.34;102402;1329;74751;-85
2022/01/24 12:21:40;;;;;;;4.80;3.60;;;;;;;22.84;27.48;102403.16;102564;1329;61521;-82
2022/01/24 12:24:08;;;;;;;5.80;3.70;;;;;;;22.84;27.42;102400.11;102530;1328;61349;-83
2022/01/24 12:27:14;;;;;;;5.00;3.80;;;;;;;22.84;27.39;102403.31;102736;1322;72750;-89
2022/01/24 12:29:59;;;;;;;5.60;3.50;;;;;;;22.84;27.35;102410.52;103038;1322;74738;-81
2022/01/24 12:32:46;;;;;;;5.20;3.50;;;;;;;22.84;27.50;102408.88;102981;1322;60427;-82
2022/01/24 12:35:43;;;;;;;5.20;3.50;;;;;;;22.85;27.46;102412.81;102996;1322;61368;-84
2022/01/24 12:39:24;;;;;;;4.80;3.50;;;;;;;22.85;27.42;102415.49;102926;1322;71612;-81
2022/01/24 12:42:07;;;;;;;4.40;3.30;;;;;;;22.85;27.39;102407.80;102752;1324;75832;-84
2022/01/24 12:47:35;;;;;;;4.60;3.30;;;;;;;22.84;27.34;102408.33;103208;1319;61177;-79
2022/01/24 12:50:13;;;;;;;5.40;3.60;;;;;;;22.85;27.44;102406.34;103881;1317;73759;-82
2022/01/24 12:52:49;;;;;;;5.40;3.50;;;;;;;22.85;27.35;102407.23;103927;1316;74919;-79
2022/01/24 12:55:25;;;;;;;4.90;3.40;;;;;;;22.85;27.31;102411.33;103467;1316;61242;-81
2022/01/24 12:58:18;;;;;;;5.00;3.30;;;;;;;22.85;27.47;102414.23;103883;1315;61719;-88
2022/01/24 13:00:58;;;;;;;6.30;3.80;;;;;;;22.84;27.42;102414.64;103700;1316;74026;-80
2022/01/24 13:03:31;;;;;;;4.80;3.30;;;;;;;22.85;27.50;102414.41;103716;1316;74894;-81
2022/01/24 13:06:23;;;;;;;5.30;3.60;;;;;;;22.85;27.41;102420.33;103702;1316;61305;-81
2022/01/24 13:09:25;;;;;;;5.50;3.40;;;;;;;22.84;27.43;102413.02;103880;1316;61266;-81
2022/01/24 13:11:59;;;;;;;4.60;3.20;;;;;;;22.84;27.44;102414.29;102986;1322;72975;-82
2022/01/24 13:15:03;;;;;;;5.10;3.60;;;;;;;22.84;27.30;102416.06;103103;1322;75082;-83
2022/01/24 13:23:47;;;;;;;5.10;3.60;;;;;;;22.84;27.51;102418.95;103041;1322;72895;-83
2022/01/24 13:26:22;;;;;;;4.40;3.30;;;;;;;22.84;27.54;102416.42;103101;1323;75788;-87
2022/01/24 13:28:48;;;;;;;4.80;3.50;;;;;;;22.85;27.48;102417.10;103228;1322;61176;-82
2022/01/24 13:31:28;;;;;;;6.60;3.30;;;;;;;22.86;27.40;102417.23;103274;1320;61177;-81
2022/01/24 13:34:08;;;;;;;4.30;3.30;;;;;;;22.85;27.57;102415.11;103202;1321;74040;-83
2022/01/24 13:36:34;;;;;;;5.30;3.50;;;;;;;22.85;27.46;102414.05;103124;1322;75945;-80
2022/01/24 13:39:25;;;;;;;5.20;3.50;;;;;;;22.85;27.48;102414.23;103166;1322;61420;-82
2022/01/24 13:42:04;;;;;;;5.00;3.40;;;;;;;22.85;27.51;102415.64;103100;1322;61309;-83
2022/01/24 13:44:42;;;;;;;;;;;;;;;;;;;;;
2022/01/24 13:47:28;;;;;;;4.50;3.30;;;;;;;22.85;27.52;102408.81;103183;1322;75052;-81
2022/01/24 13:50:17;;;;;;;5.50;3.50;;;;;;;22.85;27.50;102409.55;103719;1316;61402;-82
2022/01/24 13:53:01;;;;;;;5.80;3.20;;;;;;;22.85;27.34;102410.63;103957;1316;61294;-87
2022/01/24 13:55:42;;;;;;;5.10;3.60;;;;;;;22.86;27.53;102409.33;104270;1310;73369;-83
2022/01/24 13:58:35;;;;;;;4.80;3.40;;;;;;;22.87;27.51;102412.31;104405;1310;74209;-81
2022/01/24 14:01:21;;;;;;;8.00;3.30;;;;;;;22.87;27.46;102411.62;104383;1309;61274;-86
2022/01/24 14:04:09;;;;;;;4.50;3.10;;;;;;;22.87;27.38;102412.66;104368;1310;61632;-82
2022/01/24 14:06:59;;;;;;;4.80;3.30;;;;;;;22.87;27.44;102414.09;104469;1308;72907;-85
2022/01/24 14:10:03;;;;;;;4.90;3.30;;;;;;;22.88;27.57;102417.11;104294;1308;74661;-79
2022/01/24 14:12:57;;;;;;;4.20;3.30;;;;;;;22.88;27.45;102421.77;104372;1308;61287;-86
2022/01/24 14:18:32;;;;;;;4.70;3.30;;;;;;;22.89;27.50;102425.68;104107;1314;73789;-81
2022/01/24 14:21:24;;;;;;;4.80;3.20;;;;;;;22.90;27.35;102425.47;104191;1314;75859;-84
2022/01/24 14:24:13;;;;;;;5.20;3.80;;;;;;;22.89;27.53;102425.31;103942;1314;61234;-83
2022/01/24 14:26:59;;;;;;;4.90;3.40;;;;;;;22.90;27.53;102429.23;103206;1320;61368;-81
2022/01/24 14:29:56;;;;;;;4.90;3.30;;;;;;;22.90;27.61;102427.78;103226;1320;74466;-83
2022/01/24 14:32:35;;;;;;;;;;;;;;;;;;;;;
2022/01/24 14:35:23;;;;;;;;;;;;;;;;;;;;;
2022/01/24 14:38:15;;;;;;;4.70;3.60;;;;;;;22.91;27.52;102431.50;103247;1322;61190;-87
2022/01/24 14:41:02;;;;;;;5.30;3.40;;;;;;;22.92;27.62;102432.36;103261;1322;73869;-88
2022/01/24 14:47:12;;;;;;;5.20;3.40;;;;;;;22.92;27.61;102431.28;103350;1320;61282;-84
2022/01/24 14:49:55;;;;;;;6.90;3.40;;;;;;;22.92;27.45;102433.40;103366;1320;61201;-88
2022/01/24 14:52:36;;;;;;;5.70;3.50;;;;;;;22.92;27.55;102432.13;103493;1317;73892;-82
2022/01/24 14:55:26;;;;;;;4.80;3.70;;;;;;;22.93;27.58;102429.58;104019;1316;74871;-83
2022/01/24 14:58:01;;;;;;;5.20;3.50;;;;;;;22.93;27.57;102430.48;102967;1322;61268;-84
2022/01/24 15:00:55;;;;;;;5.50;4.10;;;;;;;22.94;27.59;102435.11;102925;1323;61795;-82
2022/01/24 15:03:30;;;;;;;5.70;3.60;;;;;;;22.94;27.47;102437.79;103030;1320;74042;-81
2022/01/24 15:06:09;;;;;;;5.20;3.70;;;;;;;22.94;27.41;102441.56;103570;1319;75263;-86
2022/01/24 15:08:46;;;;;;;6.30;3.80;;;;;;;22.95;27.62;102442.42;103437;1319;61632;-86
2022/01/24 15:11:35;;;;;;;5.40;3.60;;;;;;;22.95;27.57;102444.40;103625;1319;61256;-81